Afton, California
Current Conditions -  °F | °C
As of 11:53 AM on Friday 19 Dec 2014 (Local Time) from KOVE Reporting Station
Broken Clouds Broken Clouds  
Wind Chill: 53°   Ceiling: 8500
Heat Index: 53°   Visibility: 10mi
Dew Point: 48°   Wind: 14mph
Humidity: 83%   Direction: 140°SE
Pressure: 30.16"   Gusts: NA
Location:  39.4608°N, 121.937°W
Report Text: KOVE 191953Z AUTO 14012KT 10SM BKN085 BKN120 12/09 A3016 RMK AO2 RAB1856E34 SLP215 P0000 T01170089
Loading
Personal Weather Stations






























Interactive Weather Map New forecast layout! Learn more

10-Day Weather Forecast

Advertisements
Track Severe Weather on mobile